createdAt,value
2022-08-09T01:51:53.515Z,2.30
2022-08-09T03:01:04.243Z,2.50
2022-08-09T03:06:22.889Z,2.65
2022-08-09T03:08:52.498Z,2.67
2022-08-09T03:12:05.340Z,2.45
2022-08-09T03:14:10.985Z,3.13
2022-08-09T03:16:44.797Z,2.78
2022-08-09T03:19:16.708Z,4.03
2022-08-09T03:22:00.412Z,3.40
2022-08-09T03:24:42.283Z,3.50
2022-08-09T03:27:17.196Z,4.40
2022-08-09T03:29:57.580Z,5.25
2022-08-09T03:32:31.316Z,5.15
2022-08-09T03:34:59.504Z,5.65
2022-08-09T03:37:56.707Z,5.28
2022-08-09T03:40:18.106Z,5.70
2022-08-09T03:42:46.635Z,6.53
2022-08-09T03:45:15.359Z,7.38
2022-08-09T03:47:46.261Z,7.82
2022-08-09T03:50:14.460Z,7.00
2022-08-09T03:53:01.633Z,6.05
2022-08-09T03:55:36.213Z,5.60
2022-08-09T03:58:16.216Z,4.40
2022-08-09T04:00:45.765Z,4.93
2022-08-09T04:03:19.633Z,4.10
2022-08-09T04:05:52.131Z,4.15
2022-08-09T04:08:19.440Z,3.75
2022-08-09T04:10:56.303Z,4.05
2022-08-09T04:14:36.626Z,3.55
2022-08-09T04:16:20.567Z,3.90
2022-08-09T04:18:49.204Z,3.30
2022-08-09T04:21:19.209Z,3.58
2022-08-09T04:23:54.201Z,3.70
2022-08-09T04:26:24.579Z,2.80
2022-08-09T04:28:54.055Z,3.70
2022-08-09T04:31:37.350Z,3.50
2022-08-09T04:34:04.854Z,2.72
2022-08-09T04:36:33.863Z,2.97
2022-08-09T04:39:06.204Z,3.35
2022-08-09T04:41:33.943Z,3.72
2022-08-09T04:44:14.461Z,3.40
2022-08-09T04:46:57.565Z,3.40
2022-08-09T04:49:53.449Z,3.70
2022-08-09T04:52:26.163Z,3.63
2022-08-09T04:54:55.788Z,3.47
2022-08-09T04:57:25.200Z,3.28
2022-08-09T04:59:55.372Z,3.30
2022-08-09T05:02:27.225Z,3.45
2022-08-09T05:04:55.576Z,3.10
2022-08-09T05:07:24.310Z,2.90
2022-08-09T05:09:51.360Z,3.20
2022-08-09T05:12:18.723Z,3.83
2022-08-09T05:14:49.582Z,2.88
2022-08-09T05:18:38.836Z,2.95
2022-08-09T05:20:05.342Z,3.40
2022-08-09T05:22:36.186Z,4.15
2022-08-09T05:25:23.469Z,3.70
2022-08-09T05:27:55.280Z,4.18
2022-08-09T05:30:22.574Z,3.65
2022-08-09T05:32:50.654Z,3.42
2022-08-09T05:35:18.329Z,3.80
2022-08-09T05:37:50.503Z,4.20
2022-08-09T05:40:18.657Z,4.45
2022-08-09T05:42:46.200Z,4.00
2022-08-09T05:47:53.086Z,4.10
2022-08-09T05:53:21.865Z,3.50
2022-08-09T06:00:55.516Z,4.15
2022-08-09T06:06:04.473Z,4.30
2022-08-09T06:08:33.194Z,3.70
2022-08-09T06:11:01.293Z,3.70
2022-08-09T06:16:05.379Z,3.70
2022-08-09T06:21:01.734Z,3.90
2022-08-09T06:26:22.431Z,3.70
2022-08-09T06:29:00.425Z,3.30
2022-08-09T06:31:31.067Z,2.80
2022-08-09T06:36:37.329Z,3.50
2022-08-09T06:39:12.825Z,4.00
2022-08-09T06:44:27.412Z,3.30
2022-08-09T07:20:43.646Z,3.60
